sensor_id;sensor_type;location;lat;lon;timestamp;temperature;humidity
19206;DHT22;59358;52.134;5.596;2023-08-21T00:01:46;18.70;99.90
19206;DHT22;59358;52.134;5.596;2023-08-21T00:04:13;18.70;99.90
19206;DHT22;59358;52.134;5.596;2023-08-21T00:06:40;18.60;99.90
19206;DHT22;59358;52.134;5.596;2023-08-21T00:09:06;18.60;99.90
19206;DHT22;59358;52.134;5.596;2023-08-21T00:11:34;18.50;99.90
19206;DHT22;59358;52.134;5.596;2023-08-21T00:14:02;18.50;99.90
19206;DHT22;59358;52.134;5.596;2023-08-21T00:16:29;18.50;99.90
19206;DHT22;59358;52.134;5.596;2023-08-21T00:18:56;18.50;99.90
19206;DHT22;59358;52.134;5.596;2023-08-21T00:21:23;18.60;99.90
19206;DHT22;59358;52.134;5.596;2023-08-21T00:23:50;18.60;99.90
19206;DHT22;59358;52.134;5.596;2023-08-21T00:26:16;18.60;99.90
19206;DHT22;59358;52.134;5.596;2023-08-21T00:28:43;18.60;99.90
19206;DHT22;59358;52.134;5.596;2023-08-21T00:31:11;18.70;99.90
19206;DHT22;59358;52.134;5.596;2023-08-21T00:33:38;18.70;99.90
19206;DHT22;59358;52.134;5.596;2023-08-21T00:36:05;18.70;99.90
19206;DHT22;59358;52.134;5.596;2023-08-21T00:38:32;18.60;99.90
19206;DHT22;59358;52.134;5.596;2023-08-21T00:40:59;18.50;99.90
19206;DHT22;59358;52.134;5.596;2023-08-21T00:43:26;18.60;99.90
19206;DHT22;59358;52.134;5.596;2023-08-21T00:45:52;18.60;99.90
19206;DHT22;59358;52.134;5.596;2023-08-21T00:48:21;18.60;99.90
19206;DHT22;59358;52.134;5.596;2023-08-21T00:50:48;18.70;99.90
19206;DHT22;59358;52.134;5.596;2023-08-21T00:53:15;18.70;99.90
19206;DHT22;59358;52.134;5.596;2023-08-21T00:55:42;18.70;99.90
19206;DHT22;59358;52.134;5.596;2023-08-21T00:58:10;18.70;99.90
19206;DHT22;59358;52.134;5.596;2023-08-21T01:00:38;18.70;99.90
19206;DHT22;59358;52.134;5.596;2023-08-21T01:03:05;18.70;99.90
19206;DHT22;59358;52.134;5.596;2023-08-21T01:05:34;18.60;99.90
19206;DHT22;59358;52.134;5.596;2023-08-21T01:08:02;18.60;99.90
19206;DHT22;59358;52.134;5.596;2023-08-21T01:10:39;18.50;99.90
19206;DHT22;59358;52.134;5.596;2023-08-21T01:13:11;18.50;99.90
19206;DHT22;59358;52.134;5.596;2023-08-21T01:15:42;18.50;99.90
19206;DHT22;59358;52.134;5.596;2023-08-21T01:18:09;18.50;99.90
19206;DHT22;59358;52.134;5.596;2023-08-21T01:20:38;18.50;99.90
19206;DHT22;59358;52.134;5.596;2023-08-21T01:23:06;18.50;99.90
19206;DHT22;59358;52.134;5.596;2023-08-21T01:25:34;18.40;99.90
19206;DHT22;59358;52.134;5.596;2023-08-21T01:28:01;18.40;99.90
19206;DHT22;59358;52.134;5.596;2023-08-21T01:30:28;18.30;99.90
19206;DHT22;59358;52.134;5.596;2023-08-21T01:33:00;18.30;99.90
19206;DHT22;59358;52.134;5.596;2023-08-21T01:35:31;18.40;99.90
19206;DHT22;59358;52.134;5.596;2023-08-21T01:38:00;18.50;99.90
19206;DHT22;59358;52.134;5.596;2023-08-21T01:40:27;18.50;99.90
19206;DHT22;59358;52.134;5.596;2023-08-21T01:42:56;18.50;99.90
19206;DHT22;59358;52.134;5.596;2023-08-21T01:45:22;18.60;99.90
19206;DHT22;59358;52.134;5.596;2023-08-21T01:47:49;18.60;99.90
19206;DHT22;59358;52.134;5.596;2023-08-21T01:50:16;18.60;99.90
19206;DHT22;59358;52.134;5.596;2023-08-21T01:52:43;18.70;99.90
19206;DHT22;59358;52.134;5.596;2023-08-21T01:55:10;18.70;99.90
19206;DHT22;59358;52.134;5.596;2023-08-21T01:57:38;18.70;99.90
19206;DHT22;59358;52.134;5.596;2023-08-21T02:00:07;18.70;99.90
19206;DHT22;59358;52.134;5.596;2023-08-21T02:02:34;18.70;99.90
19206;DHT22;59358;52.134;5.596;2023-08-21T02:05:01;18.70;99.90
19206;DHT22;59358;52.134;5.596;2023-08-21T02:07:29;18.70;99.90
19206;DHT22;59358;52.134;5.596;2023-08-21T02:09:56;18.60;99.90
19206;DHT22;59358;52.134;5.596;2023-08-21T02:12:23;18.60;99.90
19206;DHT22;59358;52.134;5.596;2023-08-21T02:14:49;18.50;99.90
19206;DHT22;59358;52.134;5.596;2023-08-21T02:17:17;18.50;99.90
19206;DHT22;59358;52.134;5.596;2023-08-21T02:19:44;18.50;99.90
19206;DHT22;59358;52.134;5.596;2023-08-21T02:22:11;18.50;99.90
19206;DHT22;59358;52.134;5.596;2023-08-21T02:24:38;18.50;99.90
19206;DHT22;59358;52.134;5.596;2023-08-21T02:27:05;18.60;99.90
19206;DHT22;59358;52.134;5.596;2023-08-21T02:29:32;18.50;99.90
19206;DHT22;59358;52.134;5.596;2023-08-21T02:31:58;18.50;99.90
19206;DHT22;59358;52.134;5.596;2023-08-21T02:34:26;18.40;99.90
19206;DHT22;59358;52.134;5.596;2023-08-21T02:36:53;18.40;99.90
19206;DHT22;59358;52.134;5.596;2023-08-21T02:39:20;18.40;99.90
19206;DHT22;59358;52.134;5.596;2023-08-21T02:41:47;18.40;99.90
19206;DHT22;59358;52.134;5.596;2023-08-21T02:44:14;18.40;99.90
19206;DHT22;59358;52.134;5.596;2023-08-21T02:46:41;18.40;99.90
19206;DHT22;59358;52.134;5.596;2023-08-21T02:49:08;18.40;99.90
19206;DHT22;59358;52.134;5.596;2023-08-21T02:51:36;18.40;99.90
19206;DHT22;59358;52.134;5.596;2023-08-21T02:54:03;18.40;99.90
19206;DHT22;59358;52.134;5.596;2023-08-21T02:56:30;18.40;99.90
19206;DHT22;59358;52.134;5.596;2023-08-21T02:58:57;18.50;99.90
19206;DHT22;59358;52.134;5.596;2023-08-21T03:01:23;18.40;99.90
19206;DHT22;59358;52.134;5.596;2023-08-21T03:03:50;18.50;99.90
19206;DHT22;59358;52.134;5.596;2023-08-21T03:06:17;18.50;99.90
19206;DHT22;59358;52.134;5.596;2023-08-21T03:08:45;18.50;99.90
19206;DHT22;59358;52.134;5.596;2023-08-21T03:11:12;18.50;99.90
19206;DHT22;59358;52.134;5.596;2023-08-21T03:13:39;18.50;99.90
19206;DHT22;59358;52.134;5.596;2023-08-21T03:16:06;18.40;99.90
19206;DHT22;59358;52.134;5.596;2023-08-21T03:21:20;18.40;99.90
19206;DHT22;59358;52.134;5.596;2023-08-21T03:23:50;18.40;99.90
19206;DHT22;59358;52.134;5.596;2023-08-21T03:26:17;18.30;99.90
19206;DHT22;59358;52.134;5.596;2023-08-21T03:28:44;18.30;99.90
19206;DHT22;59358;52.134;5.596;2023-08-21T03:31:11;18.30;99.90
19206;DHT22;59358;52.134;5.596;2023-08-21T03:33:38;18.20;99.90
19206;DHT22;59358;52.134;5.596;2023-08-21T03:36:05;18.20;99.90
19206;DHT22;59358;52.134;5.596;2023-08-21T03:38:31;18.10;99.90
19206;DHT22;59358;52.134;5.596;2023-08-21T03:41:00;18.00;99.90
19206;DHT22;59358;52.134;5.596;2023-08-21T03:43:27;18.00;99.90
19206;DHT22;59358;52.134;5.596;2023-08-21T03:45:54;17.90;99.90
19206;DHT22;59358;52.134;5.596;2023-08-21T03:48:21;17.80;99.90
19206;DHT22;59358;52.134;5.596;2023-08-21T03:50:49;17.80;99.90
19206;DHT22;59358;52.134;5.596;2023-08-21T03:53:15;17.70;99.90
19206;DHT22;59358;52.134;5.596;2023-08-21T03:55:42;17.60;99.90
19206;DHT22;59358;52.134;5.596;2023-08-21T03:58:11;17.60;99.90
19206;DHT22;59358;52.134;5.596;2023-08-21T04:00:37;17.50;99.90
19206;DHT22;59358;52.134;5.596;2023-08-21T04:03:04;17.50;99.90
19206;DHT22;59358;52.134;5.596;2023-08-21T04:05:31;17.50;99.90
19206;DHT22;59358;52.134;5.596;2023-08-21T04:07:58;17.50;99.90
19206;DHT22;59358;52.134;5.596;2023-08-21T04:10:25;17.60;99.90
19206;DHT22;59358;52.134;5.596;2023-08-21T04:12:51;17.60;99.90
19206;DHT22;59358;52.134;5.596;2023-08-21T04:15:19;17.60;99.90
19206;DHT22;59358;52.134;5.596;2023-08-21T04:17:46;17.60;99.90
19206;DHT22;59358;52.134;5.596;2023-08-21T04:20:13;17.60;99.90
19206;DHT22;59358;52.134;5.596;2023-08-21T04:22:40;17.60;99.90
19206;DHT22;59358;52.134;5.596;2023-08-21T04:25:07;17.60;99.90
19206;DHT22;59358;52.134;5.596;2023-08-21T04:27:34;17.70;99.90
19206;DHT22;59358;52.134;5.596;2023-08-21T04:30:01;17.70;99.90
19206;DHT22;59358;52.134;5.596;2023-08-21T04:32:30;17.70;99.90
19206;DHT22;59358;52.134;5.596;2023-08-21T04:34:57;17.80;99.90
19206;DHT22;59358;52.134;5.596;2023-08-21T04:37:23;17.70;99.90
19206;DHT22;59358;52.134;5.596;2023-08-21T04:39:50;17.70;99.90
19206;DHT22;59358;52.134;5.596;2023-08-21T04:42:17;17.70;99.90
19206;DHT22;59358;52.134;5.596;2023-08-21T04:44:44;17.70;99.90
19206;DHT22;59358;52.134;5.596;2023-08-21T04:47:21;17.70;99.90
19206;DHT22;59358;52.134;5.596;2023-08-21T04:49:50;17.80;99.90
19206;DHT22;59358;52.134;5.596;2023-08-21T04:52:17;17.70;99.90
19206;DHT22;59358;52.134;5.596;2023-08-21T04:54:44;17.70;99.90
19206;DHT22;59358;52.134;5.596;2023-08-21T04:57:11;17.80;99.90
19206;DHT22;59358;52.134;5.596;2023-08-21T04:59:38;17.70;99.90
19206;DHT22;59358;52.134;5.596;2023-08-21T05:02:05;17.80;99.90
19206;DHT22;59358;52.134;5.596;2023-08-21T05:04:32;17.80;99.90
19206;DHT22;59358;52.134;5.596;2023-08-21T05:07:00;17.80;99.90
19206;DHT22;59358;52.134;5.596;2023-08-21T05:09:27;17.80;99.90
19206;DHT22;59358;52.134;5.596;2023-08-21T05:11:54;17.90;99.90
19206;DHT22;59358;52.134;5.596;2023-08-21T05:14:22;17.90;99.90
19206;DHT22;59358;52.134;5.596;2023-08-21T05:16:48;18.00;99.90
19206;DHT22;59358;52.134;5.596;2023-08-21T05:19:16;18.00;99.90
19206;DHT22;59358;52.134;5.596;2023-08-21T05:21:42;18.00;99.90
19206;DHT22;59358;52.134;5.596;2023-08-21T05:24:11;18.10;99.90
19206;DHT22;59358;52.134;5.596;2023-08-21T05:26:38;18.20;99.90
19206;DHT22;59358;52.134;5.596;2023-08-21T05:29:05;18.20;99.90
19206;DHT22;59358;52.134;5.596;2023-08-21T05:31:32;18.30;99.90
19206;DHT22;59358;52.134;5.596;2023-08-21T05:33:59;18.40;99.90
19206;DHT22;59358;52.134;5.596;2023-08-21T05:36:25;18.40;99.90
19206;DHT22;59358;52.134;5.596;2023-08-21T05:38:52;18.50;99.90
19206;DHT22;59358;52.134;5.596;2023-08-21T05:41:20;18.50;99.90
19206;DHT22;59358;52.134;5.596;2023-08-21T05:43:47;18.60;99.90
19206;DHT22;59358;52.134;5.596;2023-08-21T05:46:14;18.60;99.90
19206;DHT22;59358;52.134;5.596;2023-08-21T05:48:41;18.60;99.90
19206;DHT22;59358;52.134;5.596;2023-08-21T05:51:08;18.50;99.90
19206;DHT22;59358;52.134;5.596;2023-08-21T05:53:35;18.50;99.90
19206;DHT22;59358;52.134;5.596;2023-08-21T05:56:02;18.60;99.90
19206;DHT22;59358;52.134;5.596;2023-08-21T05:58:31;18.70;99.90
19206;DHT22;59358;52.134;5.596;2023-08-21T06:00:58;18.70;99.90
19206;DHT22;59358;52.134;5.596;2023-08-21T06:03:25;18.80;99.90
19206;DHT22;59358;52.134;5.596;2023-08-21T06:05:52;18.90;99.90
19206;DHT22;59358;52.134;5.596;2023-08-21T06:08:19;18.90;99.90
19206;DHT22;59358;52.134;5.596;2023-08-21T06:10:50;19.00;99.90
19206;DHT22;59358;52.134;5.596;2023-08-21T06:13:17;19.00;99.90
19206;DHT22;59358;52.134;5.596;2023-08-21T06:15:45;19.00;99.90
19206;DHT22;59358;52.134;5.596;2023-08-21T06:18:13;19.00;99.90
19206;DHT22;59358;52.134;5.596;2023-08-21T06:20:41;19.00;99.90
19206;DHT22;59358;52.134;5.596;2023-08-21T06:23:08;19.20;99.90
19206;DHT22;59358;52.134;5.596;2023-08-21T06:25:36;19.30;99.90
19206;DHT22;59358;52.134;5.596;2023-08-21T06:28:03;19.50;99.90
19206;DHT22;59358;52.134;5.596;2023-08-21T06:30:30;19.50;99.90
19206;DHT22;59358;52.134;5.596;2023-08-21T06:32:58;19.70;99.90
19206;DHT22;59358;52.134;5.596;2023-08-21T06:35:25;19.80;99.90
19206;DHT22;59358;52.134;5.596;2023-08-21T06:37:52;19.80;99.90
19206;DHT22;59358;52.134;5.596;2023-08-21T06:40:20;20.00;99.90
19206;DHT22;59358;52.134;5.596;2023-08-21T06:42:47;20.30;99.90
19206;DHT22;59358;52.134;5.596;2023-08-21T06:45:16;20.60;99.90
19206;DHT22;59358;52.134;5.596;2023-08-21T06:47:44;20.90;99.90
19206;DHT22;59358;52.134;5.596;2023-08-21T06:50:13;21.30;99.90
19206;DHT22;59358;52.134;5.596;2023-08-21T06:52:40;21.70;99.90
19206;DHT22;59358;52.134;5.596;2023-08-21T06:55:07;21.90;99.90
19206;DHT22;59358;52.134;5.596;2023-08-21T06:57:34;22.00;99.90
19206;DHT22;59358;52.134;5.596;2023-08-21T07:00:03;22.00;99.90
19206;DHT22;59358;52.134;5.596;2023-08-21T07:02:31;22.00;99.90
19206;DHT22;59358;52.134;5.596;2023-08-21T07:04:58;22.00;99.90
19206;DHT22;59358;52.134;5.596;2023-08-21T07:07:26;22.00;99.90
19206;DHT22;59358;52.134;5.596;2023-08-21T07:09:53;22.00;99.90
19206;DHT22;59358;52.134;5.596;2023-08-21T07:12:21;22.00;99.90
19206;DHT22;59358;52.134;5.596;2023-08-21T07:14:48;22.10;99.90
19206;DHT22;59358;52.134;5.596;2023-08-21T07:17:15;22.10;99.90
19206;DHT22;59358;52.134;5.596;2023-08-21T07:19:42;22.20;99.90
19206;DHT22;59358;52.134;5.596;2023-08-21T07:22:08;22.30;99.90
19206;DHT22;59358;52.134;5.596;2023-08-21T07:24:37;22.40;99.90
19206;DHT22;59358;52.134;5.596;2023-08-21T07:27:04;22.60;99.90
19206;DHT22;59358;52.134;5.596;2023-08-21T07:29:31;22.80;99.90
19206;DHT22;59358;52.134;5.596;2023-08-21T07:31:58;23.00;99.90
19206;DHT22;59358;52.134;5.596;2023-08-21T07:34:25;23.10;99.90
19206;DHT22;59358;52.134;5.596;2023-08-21T07:36:52;23.10;99.90
19206;DHT22;59358;52.134;5.596;2023-08-21T07:39:22;23.40;99.90
19206;DHT22;59358;52.134;5.596;2023-08-21T07:41:50;23.50;99.90
19206;DHT22;59358;52.134;5.596;2023-08-21T07:44:18;23.50;99.90
19206;DHT22;59358;52.134;5.596;2023-08-21T07:46:45;23.60;99.90
19206;DHT22;59358;52.134;5.596;2023-08-21T07:49:12;23.50;99.90
19206;DHT22;59358;52.134;5.596;2023-08-21T07:51:39;23.30;99.90
19206;DHT22;59358;52.134;5.596;2023-08-21T07:54:06;23.30;99.90
19206;DHT22;59358;52.134;5.596;2023-08-21T07:56:33;23.20;99.90
19206;DHT22;59358;52.134;5.596;2023-08-21T07:59:02;22.90;99.90
19206;DHT22;59358;52.134;5.596;2023-08-21T08:01:29;23.00;99.90
19206;DHT22;59358;52.134;5.596;2023-08-21T08:03:58;23.30;99.90
19206;DHT22;59358;52.134;5.596;2023-08-21T08:06:25;23.80;99.90
19206;DHT22;59358;52.134;5.596;2023-08-21T08:08:52;24.20;99.90
19206;DHT22;59358;52.134;5.596;2023-08-21T08:11:19;24.70;99.90
19206;DHT22;59358;52.134;5.596;2023-08-21T08:13:46;25.10;99.90
19206;DHT22;59358;52.134;5.596;2023-08-21T08:16:14;24.90;99.90
19206;DHT22;59358;52.134;5.596;2023-08-21T08:18:42;25.20;99.90
19206;DHT22;59358;52.134;5.596;2023-08-21T08:21:08;25.40;99.90
19206;DHT22;59358;52.134;5.596;2023-08-21T08:23:36;25.10;99.90
19206;DHT22;59358;52.134;5.596;2023-08-21T08:26:03;25.00;99.90
19206;DHT22;59358;52.134;5.596;2023-08-21T08:28:30;24.80;99.90
19206;DHT22;59358;52.134;5.596;2023-08-21T08:30:57;24.90;99.90
19206;DHT22;59358;52.134;5.596;2023-08-21T08:33:25;25.30;99.90
19206;DHT22;59358;52.134;5.596;2023-08-21T08:35:52;25.50;99.90
19206;DHT22;59358;52.134;5.596;2023-08-21T08:38:19;25.70;99.90
19206;DHT22;59358;52.134;5.596;2023-08-21T08:40:47;25.80;99.90
19206;DHT22;59358;52.134;5.596;2023-08-21T08:43:14;26.00;99.90
19206;DHT22;59358;52.134;5.596;2023-08-21T08:45:43;25.40;99.90
19206;DHT22;59358;52.134;5.596;2023-08-21T08:48:12;25.10;99.90
19206;DHT22;59358;52.134;5.596;2023-08-21T08:50:41;25.30;99.90
19206;DHT22;59358;52.134;5.596;2023-08-21T08:53:09;25.50;99.90
19206;DHT22;59358;52.134;5.596;2023-08-21T08:55:36;25.30;99.90
19206;DHT22;59358;52.134;5.596;2023-08-21T08:58:03;25.40;99.90
19206;DHT22;59358;52.134;5.596;2023-08-21T09:00:31;24.90;99.90
19206;DHT22;59358;52.134;5.596;2023-08-21T09:02:58;24.70;99.90
19206;DHT22;59358;52.134;5.596;2023-08-21T09:05:25;24.50;99.90
19206;DHT22;59358;52.134;5.596;2023-08-21T09:08:11;24.50;99.90
19206;DHT22;59358;52.134;5.596;2023-08-21T09:10:38;24.50;99.90
19206;DHT22;59358;52.134;5.596;2023-08-21T09:13:11;24.60;99.90
19206;DHT22;59358;52.134;5.596;2023-08-21T09:15:38;25.00;99.90
19206;DHT22;59358;52.134;5.596;2023-08-21T09:18:10;25.30;99.90
19206;DHT22;59358;52.134;5.596;2023-08-21T09:20:38;25.60;99.90
19206;DHT22;59358;52.134;5.596;2023-08-21T09:23:04;25.60;99.90
19206;DHT22;59358;52.134;5.596;2023-08-21T09:25:38;25.20;99.90
19206;DHT22;59358;52.134;5.596;2023-08-21T09:28:06;25.30;99.90
19206;DHT22;59358;52.134;5.596;2023-08-21T09:30:46;25.50;99.90
19206;DHT22;59358;52.134;5.596;2023-08-21T09:33:13;25.40;99.90
19206;DHT22;59358;52.134;5.596;2023-08-21T09:35:43;25.30;99.90
19206;DHT22;59358;52.134;5.596;2023-08-21T09:38:10;25.40;99.90
19206;DHT22;59358;52.134;5.596;2023-08-21T09:40:42;25.20;99.90
19206;DHT22;59358;52.134;5.596;2023-08-21T09:43:10;25.10;99.90
19206;DHT22;59358;52.134;5.596;2023-08-21T09:45:37;24.90;99.90
19206;DHT22;59358;52.134;5.596;2023-08-21T09:48:05;25.10;99.90
19206;DHT22;59358;52.134;5.596;2023-08-21T09:50:33;25.20;99.90
19206;DHT22;59358;52.134;5.596;2023-08-21T09:53:02;25.30;99.90
19206;DHT22;59358;52.134;5.596;2023-08-21T09:55:32;25.60;99.90
19206;DHT22;59358;52.134;5.596;2023-08-21T09:58:00;25.80;99.90
19206;DHT22;59358;52.134;5.596;2023-08-21T10:00:31;25.80;99.90
19206;DHT22;59358;52.134;5.596;2023-08-21T10:03:01;25.60;99.90
19206;DHT22;59358;52.134;5.596;2023-08-21T10:05:29;25.50;99.90
19206;DHT22;59358;52.134;5.596;2023-08-21T10:08:00;25.60;99.90
19206;DHT22;59358;52.134;5.596;2023-08-21T10:10:29;25.70;99.90
19206;DHT22;59358;52.134;5.596;2023-08-21T10:12:57;25.80;99.90
19206;DHT22;59358;52.134;5.596;2023-08-21T10:15:25;25.50;99.90
19206;DHT22;59358;52.134;5.596;2023-08-21T10:17:52;25.70;99.90
19206;DHT22;59358;52.134;5.596;2023-08-21T10:20:21;25.80;99.90
19206;DHT22;59358;52.134;5.596;2023-08-21T10:22:52;26.10;99.90
19206;DHT22;59358;52.134;5.596;2023-08-21T10:25:20;26.40;99.90
19206;DHT22;59358;52.134;5.596;2023-08-21T10:27:50;26.00;99.90
19206;DHT22;59358;52.134;5.596;2023-08-21T10:30:20;25.70;99.90
19206;DHT22;59358;52.134;5.596;2023-08-21T10:32:50;25.70;99.90
19206;DHT22;59358;52.134;5.596;2023-08-21T10:35:22;25.80;99.90
19206;DHT22;59358;52.134;5.596;2023-08-21T10:38:09;26.20;99.90
19206;DHT22;59358;52.134;5.596;2023-08-21T10:40:37;26.00;99.90
19206;DHT22;59358;52.134;5.596;2023-08-21T10:43:05;26.10;99.90
19206;DHT22;59358;52.134;5.596;2023-08-21T10:45:54;26.50;99.90
19206;DHT22;59358;52.134;5.596;2023-08-21T10:48:23;27.00;99.90
19206;DHT22;59358;52.134;5.596;2023-08-21T10:50:50;27.00;99.90
19206;DHT22;59358;52.134;5.596;2023-08-21T10:53:18;26.70;99.90
19206;DHT22;59358;52.134;5.596;2023-08-21T10:55:52;26.60;99.90
19206;DHT22;59358;52.134;5.596;2023-08-21T10:58:19;26.50;99.90
19206;DHT22;59358;52.134;5.596;2023-08-21T11:00:46;26.90;99.90
19206;DHT22;59358;52.134;5.596;2023-08-21T11:03:15;26.90;99.90
19206;DHT22;59358;52.134;5.596;2023-08-21T11:05:43;26.90;99.90
19206;DHT22;59358;52.134;5.596;2023-08-21T11:08:10;27.20;99.80
19206;DHT22;59358;52.134;5.596;2023-08-21T11:10:37;27.20;99.40
19206;DHT22;59358;52.134;5.596;2023-08-21T11:13:06;27.10;99.90
19206;DHT22;59358;52.134;5.596;2023-08-21T11:15:34;27.00;99.50
19206;DHT22;59358;52.134;5.596;2023-08-21T11:18:02;26.80;99.90
19206;DHT22;59358;52.134;5.596;2023-08-21T11:20:30;27.10;99.50
19206;DHT22;59358;52.134;5.596;2023-08-21T11:22:59;26.80;99.40
19206;DHT22;59358;52.134;5.596;2023-08-21T11:25:28;26.80;99.90
19206;DHT22;59358;52.134;5.596;2023-08-21T11:27:58;27.00;99.60
19206;DHT22;59358;52.134;5.596;2023-08-21T11:30:26;27.10;99.10
19206;DHT22;59358;52.134;5.596;2023-08-21T11:33:05;27.20;99.30
19206;DHT22;59358;52.134;5.596;2023-08-21T11:35:32;27.30;97.70
19206;DHT22;59358;52.134;5.596;2023-08-21T11:38:00;27.20;98.00
19206;DHT22;59358;52.134;5.596;2023-08-21T11:40:27;27.30;98.40
19206;DHT22;59358;52.134;5.596;2023-08-21T11:42:59;27.40;97.50
19206;DHT22;59358;52.134;5.596;2023-08-21T11:45:27;27.30;98.30
19206;DHT22;59358;52.134;5.596;2023-08-21T11:47:56;27.10;98.70
19206;DHT22;59358;52.134;5.596;2023-08-21T11:50:23;26.90;98.40
19206;DHT22;59358;52.134;5.596;2023-08-21T11:52:51;27.50;98.30
19206;DHT22;59358;52.134;5.596;2023-08-21T11:55:20;27.70;98.40
19206;DHT22;59358;52.134;5.596;2023-08-21T11:57:47;27.70;98.50
19206;DHT22;59358;52.134;5.596;2023-08-21T12:00:14;27.90;97.80
19206;DHT22;59358;52.134;5.596;2023-08-21T12:02:53;28.40;97.60
19206;DHT22;59358;52.134;5.596;2023-08-21T12:05:20;28.30;97.50
19206;DHT22;59358;52.134;5.596;2023-08-21T12:07:47;28.40;96.40
19206;DHT22;59358;52.134;5.596;2023-08-21T12:10:13;28.30;96.20
19206;DHT22;59358;52.134;5.596;2023-08-21T12:12:41;27.80;97.90
19206;DHT22;59358;52.134;5.596;2023-08-21T12:15:09;28.00;97.10
19206;DHT22;59358;52.134;5.596;2023-08-21T12:17:36;27.70;97.40
19206;DHT22;59358;52.134;5.596;2023-08-21T12:20:06;27.60;97.90
19206;DHT22;59358;52.134;5.596;2023-08-21T12:22:36;28.30;97.40
19206;DHT22;59358;52.134;5.596;2023-08-21T12:25:03;28.30;96.40
19206;DHT22;59358;52.134;5.596;2023-08-21T12:27:30;28.60;96.90
19206;DHT22;59358;52.134;5.596;2023-08-21T12:29:59;28.60;96.70
19206;DHT22;59358;52.134;5.596;2023-08-21T12:32:26;28.70;95.80
19206;DHT22;59358;52.134;5.596;2023-08-21T12:34:52;29.00;96.40
19206;DHT22;59358;52.134;5.596;2023-08-21T12:37:19;28.70;95.50
19206;DHT22;59358;52.134;5.596;2023-08-21T12:39:46;28.50;95.70
19206;DHT22;59358;52.134;5.596;2023-08-21T12:42:13;28.20;95.90
19206;DHT22;59358;52.134;5.596;2023-08-21T12:44:40;28.10;96.60
19206;DHT22;59358;52.134;5.596;2023-08-21T12:47:08;28.30;96.90
19206;DHT22;59358;52.134;5.596;2023-08-21T12:49:35;28.20;96.40
19206;DHT22;59358;52.134;5.596;2023-08-21T12:52:02;28.20;96.00
19206;DHT22;59358;52.134;5.596;2023-08-21T12:54:31;28.50;96.20
19206;DHT22;59358;52.134;5.596;2023-08-21T12:56:58;28.70;95.30
19206;DHT22;59358;52.134;5.596;2023-08-21T12:59:24;28.70;94.40
19206;DHT22;59358;52.134;5.596;2023-08-21T13:01:51;29.10;93.30
19206;DHT22;59358;52.134;5.596;2023-08-21T13:04:19;29.40;94.60
19206;DHT22;59358;52.134;5.596;2023-08-21T13:06:46;29.60;94.00
19206;DHT22;59358;52.134;5.596;2023-08-21T13:09:13;29.40;94.20
19206;DHT22;59358;52.134;5.596;2023-08-21T13:11:40;29.50;94.20
19206;DHT22;59358;52.134;5.596;2023-08-21T13:14:07;29.60;95.20
19206;DHT22;59358;52.134;5.596;2023-08-21T13:16:33;29.80;93.60
19206;DHT22;59358;52.134;5.596;2023-08-21T13:19:00;29.60;94.00
19206;DHT22;59358;52.134;5.596;2023-08-21T13:21:29;30.00;94.10
19206;DHT22;59358;52.134;5.596;2023-08-21T13:23:55;30.40;94.30
19206;DHT22;59358;52.134;5.596;2023-08-21T13:26:22;30.00;93.30
19206;DHT22;59358;52.134;5.596;2023-08-21T13:28:51;29.50;93.90
19206;DHT22;59358;52.134;5.596;2023-08-21T13:31:18;29.40;93.70
19206;DHT22;59358;52.134;5.596;2023-08-21T13:33:45;28.60;94.60
19206;DHT22;59358;52.134;5.596;2023-08-21T13:36:12;28.40;94.70
19206;DHT22;59358;52.134;5.596;2023-08-21T13:38:40;28.20;94.90
19206;DHT22;59358;52.134;5.596;2023-08-21T13:41:07;28.50;94.50
19206;DHT22;59358;52.134;5.596;2023-08-21T13:43:35;28.70;95.40
19206;DHT22;59358;52.134;5.596;2023-08-21T13:46:02;28.90;94.90
19206;DHT22;59358;52.134;5.596;2023-08-21T13:48:30;28.80;95.60
19206;DHT22;59358;52.134;5.596;2023-08-21T13:50:57;29.30;94.80
19206;DHT22;59358;52.134;5.596;2023-08-21T13:53:24;29.20;95.00
19206;DHT22;59358;52.134;5.596;2023-08-21T13:55:52;29.70;94.00
19206;DHT22;59358;52.134;5.596;2023-08-21T13:58:19;29.90;93.70
19206;DHT22;59358;52.134;5.596;2023-08-21T14:00:46;29.90;92.80
19206;DHT22;59358;52.134;5.596;2023-08-21T14:03:14;29.50;93.90
19206;DHT22;59358;52.134;5.596;2023-08-21T14:05:41;29.10;94.80
19206;DHT22;59358;52.134;5.596;2023-08-21T14:08:07;29.40;95.50
19206;DHT22;59358;52.134;5.596;2023-08-21T14:10:34;30.00;93.20
19206;DHT22;59358;52.134;5.596;2023-08-21T14:13:03;30.20;93.00
19206;DHT22;59358;52.134;5.596;2023-08-21T14:15:32;30.30;94.40
19206;DHT22;59358;52.134;5.596;2023-08-21T14:17:58;30.50;92.90
19206;DHT22;59358;52.134;5.596;2023-08-21T14:20:25;29.80;93.00
19206;DHT22;59358;52.134;5.596;2023-08-21T14:22:52;30.10;93.60
19206;DHT22;59358;52.134;5.596;2023-08-21T14:25:19;30.10;93.20
19206;DHT22;59358;52.134;5.596;2023-08-21T14:27:46;29.70;92.90
19206;DHT22;59358;52.134;5.596;2023-08-21T14:30:15;29.40;93.50
19206;DHT22;59358;52.134;5.596;2023-08-21T14:32:42;29.50;94.30
19206;DHT22;59358;52.134;5.596;2023-08-21T14:35:09;30.10;93.50
19206;DHT22;59358;52.134;5.596;2023-08-21T14:37:36;30.50;92.40
19206;DHT22;59358;52.134;5.596;2023-08-21T14:40:07;30.00;93.00
19206;DHT22;59358;52.134;5.596;2023-08-21T14:42:35;29.30;93.50
19206;DHT22;59358;52.134;5.596;2023-08-21T14:45:02;28.90;93.40
19206;DHT22;59358;52.134;5.596;2023-08-21T14:47:31;28.70;93.70
19206;DHT22;59358;52.134;5.596;2023-08-21T14:49:58;28.80;93.80
19206;DHT22;59358;52.134;5.596;2023-08-21T14:52:25;29.30;94.20
19206;DHT22;59358;52.134;5.596;2023-08-21T14:54:52;30.10;92.90
19206;DHT22;59358;52.134;5.596;2023-08-21T14:57:19;30.90;93.20
19206;DHT22;59358;52.134;5.596;2023-08-21T14:59:46;31.40;91.90
19206;DHT22;59358;52.134;5.596;2023-08-21T15:02:13;31.90;91.30
19206;DHT22;59358;52.134;5.596;2023-08-21T15:04:41;32.20;90.50
19206;DHT22;59358;52.134;5.596;2023-08-21T15:07:08;31.90;90.00
19206;DHT22;59358;52.134;5.596;2023-08-21T15:09:35;31.80;90.20
19206;DHT22;59358;52.134;5.596;2023-08-21T15:12:02;31.90;90.80
19206;DHT22;59358;52.134;5.596;2023-08-21T15:14:29;32.30;90.20
19206;DHT22;59358;52.134;5.596;2023-08-21T15:16:55;32.50;90.10
19206;DHT22;59358;52.134;5.596;2023-08-21T15:19:22;32.60;89.60
19206;DHT22;59358;52.134;5.596;2023-08-21T15:21:50;32.60;88.90
19206;DHT22;59358;52.134;5.596;2023-08-21T15:24:17;32.60;88.40
19206;DHT22;59358;52.134;5.596;2023-08-21T15:26:44;33.20;88.30
19206;DHT22;59358;52.134;5.596;2023-08-21T15:29:11;34.50;86.40
19206;DHT22;59358;52.134;5.596;2023-08-21T15:31:38;34.80;84.50
19206;DHT22;59358;52.134;5.596;2023-08-21T15:34:05;34.90;84.70
19206;DHT22;59358;52.134;5.596;2023-08-21T15:36:32;35.20;83.10